Time;durP1;ratioP1;P1;durP2;ratioP2;P2;SDS_P1;SDS_P2;PMS_P1;PMS_P2;Temp;Humidity;BMP_temperature;BMP_pressure;BME280_temperature;BME280_humidity;BME280_pressure;Samples;Min_cycle;Max_cycle;Signal;HPM_P1;HPM_P2
2022/04/30 00:01:49;;;;;;;16.10;9.77;;;;;;;8.29;69.61;100643.25;5091217;28;20033;-69
2022/04/30 00:04:15;;;;;;;14.77;11.75;;;;;;;8.31;69.33;100641.47;5075743;28;20047;-69
2022/04/30 00:06:42;;;;;;;14.85;9.32;;;;;;;8.32;69.25;100643.19;5075595;28;20107;-70
2022/04/30 00:09:07;;;;;;;15.77;10.95;;;;;;;8.20;69.53;100637.41;5075304;28;20115;-68
2022/04/30 00:11:32;;;;;;;13.07;10.32;;;;;;;8.13;69.71;100652.44;5074426;28;20546;-71
2022/04/30 00:13:58;;;;;;;19.33;10.75;;;;;;;8.02;69.08;100639.56;5074269;28;20403;-69
2022/04/30 00:16:23;;;;;;;17.65;11.10;;;;;;;7.94;69.96;100642.38;5074084;28;20045;-68
2022/04/30 00:18:49;;;;;;;18.60;11.48;;;;;;;7.95;70.11;100638.88;5081192;28;20051;-70
2022/04/30 00:21:14;;;;;;;14.95;9.50;;;;;;;7.87;69.95;100629.47;5082455;28;20036;-69
2022/04/30 00:23:40;;;;;;;15.32;9.70;;;;;;;7.81;70.05;100635.72;5077153;28;20062;-71
2022/04/30 00:26:05;;;;;;;17.38;9.60;;;;;;;7.76;70.35;100634.97;5077730;28;20036;-70
2022/04/30 00:28:31;;;;;;;13.85;9.55;;;;;;;7.73;70.47;100635.06;5090191;28;20139;-69
2022/04/30 00:30:56;;;;;;;18.85;11.63;;;;;;;7.64;70.57;100640.50;5070899;28;20119;-68
2022/04/30 00:33:23;;;;;;;12.32;9.50;;;;;;;7.63;70.78;100642.28;5074948;28;20294;-68
2022/04/30 00:35:48;;;;;;;13.27;8.82;;;;;;;7.63;70.30;100633.53;5076287;28;20526;-68
2022/04/30 00:38:15;;;;;;;19.70;9.95;;;;;;;7.62;70.52;100637.06;5074236;28;20064;-69
2022/04/30 00:40:42;;;;;;;11.38;8.25;;;;;;;7.62;71.31;100637.06;5071503;28;20039;-70
2022/04/30 00:43:07;;;;;;;12.63;10.50;;;;;;;7.61;70.50;100630.09;5072114;28;20060;-71
2022/04/30 00:45:33;;;;;;;16.45;10.73;;;;;;;7.53;70.96;100633.75;5072321;28;20488;-70
2022/04/30 00:47:58;;;;;;;15.63;9.82;;;;;;;7.50;71.01;100631.19;5071575;28;20112;-70
2022/04/30 00:50:27;;;;;;;15.32;9.68;;;;;;;7.47;70.69;100633.88;5072763;28;20033;-70
2022/04/30 00:52:56;;;;;;;11.80;8.77;;;;;;;7.48;70.76;100632.13;5073636;28;20081;-69
2022/04/30 00:55:22;;;;;;;12.43;9.88;;;;;;;7.41;71.63;100631.41;5074714;28;20188;-69
2022/04/30 00:57:53;;;;;;;13.55;9.00;;;;;;;7.42;70.86;100630.50;5073174;28;20095;-68
2022/04/30 01:00:18;;;;;;;16.33;9.82;;;;;;;7.37;70.97;100627.13;5067301;28;20051;-70
2022/04/30 01:02:43;;;;;;;13.43;8.88;;;;;;;7.36;71.25;100637.63;5073014;28;20036;-69
2022/04/30 01:05:10;;;;;;;15.50;10.85;;;;;;;7.35;71.41;100631.53;5075548;28;20117;-68
2022/04/30 01:07:39;;;;;;;15.60;9.85;;;;;;;7.32;71.31;100626.38;5073890;28;20039;-68
2022/04/30 01:10:06;;;;;;;13.98;10.07;;;;;;;7.34;71.42;100631.59;5073618;28;20392;-69
2022/04/30 01:12:32;;;;;;;11.05;8.55;;;;;;;7.37;71.68;100632.38;5089233;28;20033;-69
2022/04/30 01:14:57;;;;;;;13.35;8.93;;;;;;;7.40;70.91;100634.91;5074821;28;20066;-69
2022/04/30 01:17:23;;;;;;;15.52;9.60;;;;;;;7.41;71.58;100630.53;5074979;28;20032;-70
2022/04/30 01:19:49;;;;;;;12.63;9.10;;;;;;;7.40;71.33;100624.44;5074335;28;20499;-68
2022/04/30 01:22:24;;;;;;;15.10;9.48;;;;;;;7.44;71.42;100623.47;5074408;28;20035;-69
2022/04/30 01:24:52;;;;;;;13.80;8.98;;;;;;;7.42;71.35;100624.41;5075325;28;20059;-69
2022/04/30 01:27:18;;;;;;;13.10;9.07;;;;;;;7.45;70.88;100624.31;5075229;28;20032;-68
2022/04/30 01:29:44;;;;;;;11.52;7.53;;;;;;;7.41;71.13;100620.94;5074275;28;20021;-69
2022/04/30 01:37:37;;;;;;;23.42;10.05;;;;;;;7.45;70.51;100617.31;5073329;28;20058;-69
2022/04/30 01:40:03;;;;;;;11.93;8.40;;;;;;;7.44;70.60;100615.59;5073469;28;20555;-70
2022/04/30 01:42:31;;;;;;;16.73;11.07;;;;;;;7.39;71.02;100616.63;5073542;28;20116;-70
2022/04/30 01:44:58;;;;;;;13.15;8.77;;;;;;;7.40;71.36;100619.19;5075193;28;20052;-69
2022/04/30 01:47:23;;;;;;;13.10;9.45;;;;;;;7.44;71.12;100617.38;5073767;28;20024;-69
2022/04/30 01:49:49;;;;;;;16.15;8.80;;;;;;;7.48;71.15;100611.13;5072562;28;20032;-69
2022/04/30 01:52:15;;;;;;;13.35;9.52;;;;;;;7.49;70.83;100615.50;5073769;28;20028;-69
2022/04/30 01:54:42;;;;;;;19.05;10.10;;;;;;;7.45;70.38;100608.59;5077507;28;20059;-68
2022/04/30 01:57:07;;;;;;;14.65;8.15;;;;;;;7.39;71.15;100611.38;5076346;28;20090;-69
2022/04/30 01:59:33;;;;;;;13.27;9.20;;;;;;;7.42;71.03;100612.16;5075077;28;20036;-68
2022/04/30 02:01:59;;;;;;;16.95;10.57;;;;;;;7.39;70.73;100609.59;5075936;28;20036;-69
2022/04/30 02:04:25;;;;;;;14.13;9.27;;;;;;;7.41;71.04;100599.94;5074345;28;20047;-69
2022/04/30 02:06:50;;;;;;;13.52;8.55;;;;;;;7.43;70.70;100602.50;5071384;28;20040;-68
2022/04/30 02:09:17;;;;;;;12.38;9.90;;;;;;;7.44;70.54;100599.84;5071163;28;20030;-69
2022/04/30 02:11:43;;;;;;;16.65;10.95;;;;;;;7.43;71.05;100598.16;5070458;28;20051;-72
2022/04/30 02:14:13;;;;;;;17.33;9.65;;;;;;;7.46;70.77;100598.06;5070871;28;20032;-69
2022/04/30 02:16:42;;;;;;;17.88;9.57;;;;;;;7.45;70.71;100600.72;5070484;28;20455;-69
2022/04/30 02:19:08;;;;;;;15.48;10.13;;;;;;;7.43;71.14;100603.41;5070829;28;20045;-69
2022/04/30 02:21:35;;;;;;;15.70;9.95;;;;;;;7.35;71.21;100597.44;5069540;28;20062;-69
2022/04/30 02:24:02;;;;;;;14.63;10.55;;;;;;;7.35;70.83;100594.81;5070279;28;20035;-69
2022/04/30 02:26:28;;;;;;;15.98;11.10;;;;;;;7.35;71.35;100594.81;5070276;28;20032;-69
2022/04/30 02:28:55;;;;;;;12.13;9.00;;;;;;;7.31;71.13;100591.41;5068705;28;20032;-69
2022/04/30 02:31:23;;;;;;;17.38;10.63;;;;;;;7.28;71.12;100593.22;5069061;28;20059;-69
2022/04/30 02:33:48;;;;;;;16.45;10.93;;;;;;;7.28;71.25;100593.22;5069580;28;20567;-69
2022/04/30 02:36:15;;;;;;;19.13;11.65;;;;;;;7.26;72.04;100589.78;5069890;28;20127;-69
2022/04/30 02:38:41;;;;;;;20.90;9.85;;;;;;;7.25;71.42;100596.78;5069029;28;20484;-70
2022/04/30 02:41:07;;;;;;;18.08;11.52;;;;;;;7.34;71.55;100595.72;5069417;28;20404;-69
2022/04/30 02:43:32;;;;;;;13.50;10.50;;;;;;;7.38;71.55;100592.13;5069368;28;20028;-68
2022/04/30 02:45:57;;;;;;;16.50;10.13;;;;;;;7.37;71.28;100592.16;5069189;28;20028;-69
2022/04/30 02:48:23;;;;;;;15.43;9.43;;;;;;;7.39;70.71;100585.13;5069480;28;20035;-69
2022/04/30 02:50:48;;;;;;;19.80;8.95;;;;;;;7.42;70.42;100588.53;5068627;28;20028;-68
2022/04/30 02:53:14;;;;;;;15.10;10.43;;;;;;;7.42;71.02;100580.66;5068860;28;20043;-68
2022/04/30 02:55:39;;;;;;;11.77;9.30;;;;;;;7.37;70.70;100585.16;5069133;28;20043;-68
2022/04/30 03:00:51;;;;;;;15.27;8.15;;;;;;;7.38;70.82;100584.25;5072290;28;20090;-69
2022/04/30 03:03:17;;;;;;;13.15;9.95;;;;;;;7.35;70.84;100579.06;5073523;28;20374;-69
2022/04/30 03:05:44;;;;;;;11.48;8.90;;;;;;;7.34;70.74;100579.13;5073209;28;20036;-68
2022/04/30 03:08:12;;;;;;;15.43;9.23;;;;;;;7.34;70.46;100574.75;5072226;28;20043;-68
2022/04/30 03:10:49;;;;;;;13.80;9.30;;;;;;;7.35;70.57;100580.84;5072822;28;20043;-69
2022/04/30 03:13:14;;;;;;;13.82;7.78;;;;;;;7.32;71.09;100580.00;5071962;28;20079;-69
2022/04/30 03:15:45;;;;;;;20.88;10.52;;;;;;;7.29;71.28;100574.00;5073442;28;20724;-69
2022/04/30 03:23:41;;;;;;;16.27;8.23;;;;;;;7.18;71.18;100581.22;5073408;28;19919;-69
2022/04/30 03:26:08;;;;;;;15.95;9.18;;;;;;;7.18;71.58;100579.47;5073028;28;20108;-69
2022/04/30 03:28:34;;;;;;;13.55;8.77;;;;;;;7.07;71.47;100571.84;5071897;28;20089;-68
2022/04/30 03:31:00;;;;;;;16.65;9.90;;;;;;;7.12;71.90;100576.13;5072716;28;20044;-70
2022/04/30 03:33:26;;;;;;;18.63;10.02;;;;;;;7.13;71.61;100578.69;5072768;28;20036;-70
2022/04/30 03:35:52;;;;;;;16.52;9.18;;;;;;;7.13;71.97;100577.84;5071676;28;20037;-69
2022/04/30 03:38:17;;;;;;;13.05;8.55;;;;;;;7.14;72.09;100577.81;5072184;28;20052;-69
2022/04/30 03:40:42;;;;;;;12.75;8.80;;;;;;;7.15;71.75;100573.44;5070563;28;20029;-69
2022/04/30 03:43:08;;;;;;;12.90;8.45;;;;;;;7.20;71.65;100574.19;5071118;28;20032;-70
2022/04/30 03:45:34;;;;;;;13.93;8.00;;;;;;;7.22;71.35;100575.03;5067714;28;20553;-69
2022/04/30 03:47:59;;;;;;;11.10;8.15;;;;;;;7.19;71.25;100580.34;5068266;28;20044;-69
2022/04/30 03:50:25;;;;;;;13.95;8.95;;;;;;;7.16;72.29;100577.78;5070791;28;20028;-69
2022/04/30 03:52:50;;;;;;;12.35;9.00;;;;;;;7.14;71.63;100580.44;5073920;28;20395;-69
2022/04/30 03:55:16;;;;;;;14.80;8.73;;;;;;;7.09;72.15;100585.78;5073679;28;20040;-69
2022/04/30 03:57:41;;;;;;;16.05;9.88;;;;;;;7.07;71.94;100590.19;5073906;28;20419;-68
2022/04/30 04:00:09;;;;;;;13.63;10.07;;;;;;;7.02;71.82;100589.44;5069578;28;20040;-68
2022/04/30 04:02:36;;;;;;;15.15;9.35;;;;;;;6.95;72.14;100590.47;5069214;28;20116;-69
2022/04/30 04:05:02;;;;;;;10.57;8.13;;;;;;;6.91;72.21;100586.16;5069011;28;20407;-69
2022/04/30 04:07:27;;;;;;;12.77;8.90;;;;;;;6.85;72.37;100589.78;5069456;28;20115;-68
2022/04/30 04:09:52;;;;;;;14.05;10.02;;;;;;;6.85;72.79;100594.19;5068798;28;20047;-68
2022/04/30 04:12:18;;;;;;;17.33;9.57;;;;;;;6.85;72.30;100591.56;5068510;28;20064;-68
2022/04/30 04:17:39;;;;;;;18.20;10.75;;;;;;;6.77;72.33;100601.31;5073808;28;20105;-69
2022/04/30 04:20:09;;;;;;;15.07;8.93;;;;;;;6.78;72.82;100596.06;5076647;28;20028;-69
2022/04/30 04:22:35;;;;;;;16.15;10.77;;;;;;;6.80;73.16;100601.28;5073560;28;20048;-69
2022/04/30 04:27:45;;;;;;;19.27;9.32;;;;;;;6.84;73.08;100609.03;5078479;28;20047;-69
2022/04/30 04:30:11;;;;;;;13.43;9.20;;;;;;;6.83;72.64;100604.69;5078145;28;20395;-69
2022/04/30 04:32:36;;;;;;;17.73;10.13;;;;;;;6.78;72.63;100603.91;5073052;28;20036;-69
2022/04/30 04:35:02;;;;;;;13.52;9.60;;;;;;;6.77;73.49;100604.81;5071631;28;20080;-69
2022/04/30 04:37:27;;;;;;;19.55;8.27;;;;;;;6.84;72.88;100609.03;5072016;28;20056;-69
2022/04/30 04:39:54;;;;;;;14.35;9.05;;;;;;;6.88;73.22;100604.59;5071920;28;20033;-69
2022/04/30 04:42:20;;;;;;;12.75;9.60;;;;;;;6.92;72.31;100602.78;5071067;28;20044;-69
2022/04/30 04:44:46;;;;;;;14.23;7.95;;;;;;;6.94;72.52;100603.59;5071734;28;20024;-69
2022/04/30 04:47:12;;;;;;;14.73;10.43;;;;;;;6.96;72.25;100613.16;5072562;28;20059;-69
2022/04/30 04:49:38;;;;;;;14.93;10.00;;;;;;;6.96;72.34;100612.28;5071767;28;20040;-68
2022/04/30 04:52:03;;;;;;;14.55;8.93;;;;;;;6.92;72.06;100615.91;5072042;28;20032;-70
2022/04/30 04:54:29;;;;;;;14.13;9.85;;;;;;;6.92;72.85;100616.75;5073291;28;20029;-69
2022/04/30 04:56:55;;;;;;;18.50;10.13;;;;;;;6.97;72.05;100619.28;5073048;28;20024;-69
2022/04/30 04:59:20;;;;;;;12.60;9.38;;;;;;;6.91;72.52;100616.78;5071112;28;20525;-69
2022/04/30 05:01:48;;;;;;;15.27;9.60;;;;;;;6.93;72.35;100617.59;5071060;28;20037;-68
2022/04/30 05:04:13;;;;;;;13.60;8.93;;;;;;;6.90;72.38;100625.53;5086519;28;20033;-69
2022/04/30 05:06:38;;;;;;;12.85;8.60;;;;;;;6.90;72.46;100631.63;5071691;28;20501;-68
2022/04/30 05:09:04;;;;;;;12.20;9.73;;;;;;;6.88;72.72;100628.19;5071531;28;20037;-67
2022/04/30 05:11:29;;;;;;;20.65;9.25;;;;;;;6.86;72.59;100625.56;5070404;28;20380;-68
2022/04/30 05:13:54;;;;;;;13.35;9.77;;;;;;;6.84;72.53;100623.88;5071124;28;20120;-69
2022/04/30 05:16:20;;;;;;;16.92;9.88;;;;;;;6.81;72.54;100627.44;5071189;28;20029;-69
2022/04/30 05:18:45;;;;;;;14.13;9.90;;;;;;;6.80;73.18;100632.72;5071308;28;20032;-69
2022/04/30 05:21:10;;;;;;;20.10;9.85;;;;;;;6.87;72.51;100637.81;5071013;28;20036;-68
2022/04/30 05:23:36;;;;;;;15.57;8.70;;;;;;;6.94;72.72;100638.56;5070799;28;20059;-68
2022/04/30 05:26:02;;;;;;;16.35;9.80;;;;;;;6.85;72.96;100641.34;5069177;28;20435;-69
2022/04/30 05:28:27;;;;;;;16.48;8.90;;;;;;;6.77;73.04;100640.63;5071299;28;20051;-69
2022/04/30 05:30:53;;;;;;;12.73;8.85;;;;;;;6.80;73.16;100641.44;5070873;28;20032;-69
2022/04/30 05:33:18;;;;;;;15.80;9.27;;;;;;;6.95;72.73;100645.50;5070837;28;20052;-69
2022/04/30 05:35:44;;;;;;;15.02;10.20;;;;;;;7.04;72.19;100640.09;5071139;28;20404;-69
2022/04/30 05:38:10;;;;;;;14.57;9.00;;;;;;;7.16;71.49;100640.69;5071987;28;20028;-69
2022/04/30 05:40:35;;;;;;;15.52;9.32;;;;;;;7.19;71.32;100641.53;5070854;28;20036;-69
2022/04/30 05:43:00;;;;;;;16.15;8.95;;;;;;;7.17;71.25;100642.44;5070186;28;20412;-69
2022/04/30 05:45:26;;;;;;;11.73;8.75;;;;;;;7.19;71.44;100646.75;5070442;28;20039;-69
2022/04/30 05:47:51;;;;;;;14.25;9.23;;;;;;;7.29;71.01;100642.19;5070560;28;20544;-68
2022/04/30 05:50:17;;;;;;;19.48;9.32;;;;;;;7.37;71.83;100642.88;5070399;28;20100;-70
2022/04/30 05:52:42;;;;;;;16.40;9.90;;;;;;;7.21;70.66;100638.84;5070386;28;20032;-71
2022/04/30 05:55:08;;;;;;;14.43;9.13;;;;;;;7.23;71.43;100639.69;5070587;28;20037;-69
2022/04/30 05:57:33;;;;;;;13.50;9.00;;;;;;;7.23;71.33;100642.31;5070324;28;20100;-69
2022/04/30 05:59:59;;;;;;;13.63;8.85;;;;;;;7.40;70.91;100645.41;5071669;28;20033;-69
2022/04/30 06:02:24;;;;;;;16.88;10.27;;;;;;;7.38;70.61;100639.34;5071390;28;20418;-69
2022/04/30 06:04:50;;;;;;;14.15;8.65;;;;;;;7.43;70.49;100634.88;5070477;28;20032;-70
2022/04/30 06:07:16;;;;;;;13.25;8.98;;;;;;;7.51;70.27;100642.56;5071086;28;20033;-70
2022/04/30 06:09:42;;;;;;;16.30;8.90;;;;;;;7.64;70.48;100640.50;5072508;28;20428;-70
2022/04/30 06:12:08;;;;;;;14.15;8.45;;;;;;;7.74;69.65;100644.66;5074848;28;20063;-69
2022/04/30 06:14:33;;;;;;;10.27;7.63;;;;;;;7.85;70.02;100645.25;5070744;28;20416;-69
2022/04/30 06:17:00;;;;;;;14.93;9.30;;;;;;;7.88;69.71;100649.56;5069881;28;20061;-70
2022/04/30 06:19:25;;;;;;;18.50;9.13;;;;;;;7.87;68.90;100647.84;5071175;28;20051;-70
2022/04/30 06:21:51;;;;;;;17.27;9.10;;;;;;;7.80;69.16;100648.88;5069400;28;20058;-70
2022/04/30 06:24:17;;;;;;;17.58;9.60;;;;;;;7.77;69.16;100654.22;5069843;28;20503;-70
2022/04/30 06:26:44;;;;;;;13.30;9.30;;;;;;;7.69;69.62;100654.38;5069478;28;20119;-71
2022/04/30 06:29:10;;;;;;;18.88;10.32;;;;;;;7.70;70.12;100653.47;5070425;28;20052;-70
2022/04/30 06:31:35;;;;;;;14.93;10.27;;;;;;;7.77;69.71;100651.59;5068972;28;20539;-70
2022/04/30 06:34:01;;;;;;;20.88;11.38;;;;;;;7.72;69.54;100649.91;5069514;28;20043;-70
2022/04/30 06:36:28;;;;;;;16.13;10.80;;;;;;;7.69;69.75;100654.38;5068941;28;20055;-70
2022/04/30 06:38:53;;;;;;;22.23;13.20;;;;;;;7.73;69.79;100664.78;5068863;28;20055;-70
2022/04/30 06:41:22;;;;;;;16.35;11.85;;;;;;;7.70;69.95;100657.00;5068844;28;20056;-70
2022/04/30 06:43:49;;;;;;;22.95;16.48;;;;;;;7.73;69.59;100663.94;5069436;28;20485;-69
2022/04/30 06:46:15;;;;;;;24.90;16.10;;;;;;;7.74;68.63;100661.25;5069328;28;20040;-69
2022/04/30 06:48:40;;;;;;;18.40;13.98;;;;;;;7.76;69.44;100663.84;5070009;28;20032;-71
2022/04/30 06:51:06;;;;;;;19.85;14.48;;;;;;;7.84;69.45;100659.28;5069082;28;20446;-70
2022/04/30 06:59:04;;;;;;;23.27;17.88;;;;;;;7.63;69.66;100672.88;5069713;28;20628;-71
2022/04/30 07:01:48;;;;;;;24.42;18.58;;;;;;;7.71;69.53;100676.22;5070488;28;20482;-70
2022/04/30 07:04:16;;;;;;;28.85;19.17;;;;;;;7.64;69.44;100675.50;5071819;28;20032;-69
2022/04/30 07:06:42;;;;;;;28.90;18.80;;;;;;;7.68;69.15;100671.91;5071937;28;20029;-69
2022/04/30 07:09:07;;;;;;;24.65;18.17;;;;;;;7.80;69.43;100680.38;5086867;28;20032;-69
2022/04/30 07:11:34;;;;;;;21.33;16.48;;;;;;;7.85;68.47;100683.75;5068982;28;20741;-70
2022/04/30 07:13:59;;;;;;;21.65;16.77;;;;;;;7.80;68.60;100680.38;5069332;28;20033;-70
2022/04/30 07:16:25;;;;;;;25.48;17.75;;;;;;;7.53;69.13;100681.00;5068492;28;20051;-70
2022/04/30 07:18:50;;;;;;;19.83;15.70;;;;;;;7.56;69.70;100680.06;5069151;28;20024;-69
2022/04/30 07:21:16;;;;;;;21.05;16.45;;;;;;;7.47;70.18;100678.50;5067661;28;20024;-70
2022/04/30 07:23:42;;;;;;;21.85;16.92;;;;;;;7.47;70.03;100686.34;5072505;28;20032;-70
2022/04/30 07:26:07;;;;;;;21.65;17.63;;;;;;;7.44;69.97;100688.19;5071385;28;20043;-68
2022/04/30 07:28:35;;;;;;;19.23;16.20;;;;;;;7.40;70.84;100683.91;5069658;28;20548;-69
2022/04/30 07:31:02;;;;;;;20.92;15.07;;;;;;;7.58;70.52;100690.50;5069951;28;20492;-69
2022/04/30 07:33:27;;;;;;;21.52;16.00;;;;;;;7.65;69.56;100692.94;5073171;28;20032;-69
2022/04/30 07:35:54;;;;;;;20.73;14.90;;;;;;;7.71;69.77;100686.72;5073440;28;20101;-70
2022/04/30 07:38:19;;;;;;;17.02;14.23;;;;;;;7.77;68.10;100686.56;5072882;28;20028;-71
2022/04/30 07:40:45;;;;;;;26.60;16.02;;;;;;;7.63;68.86;100688.63;5069854;28;20025;-70
2022/04/30 07:43:10;;;;;;;23.38;15.30;;;;;;;7.52;69.51;100687.13;5069450;28;20556;-69
2022/04/30 07:45:36;;;;;;;20.23;16.00;;;;;;;7.55;70.24;100687.94;5069214;28;20504;-69
2022/04/30 07:48:02;;;;;;;16.77;14.68;;;;;;;7.70;70.00;100685.88;5068929;28;20046;-69
2022/04/30 07:50:31;;;;;;;30.58;16.55;;;;;;;8.00;69.10;100679.91;5071938;28;20512;-70
2022/04/30 07:52:56;;;;;;;22.17;14.73;;;;;;;8.30;68.21;100680.91;5072232;28;20059;-69
2022/04/30 07:55:22;;;;;;;22.42;13.55;;;;;;;8.32;67.86;100684.38;5072369;28;20102;-70
2022/04/30 07:57:48;;;;;;;18.42;12.13;;;;;;;8.46;66.61;100673.53;5072478;28;20039;-70
2022/04/30 08:00:13;;;;;;;18.15;13.57;;;;;;;8.52;66.09;100678.63;5072448;28;20036;-71
2022/04/30 08:02:39;;;;;;;17.17;13.93;;;;;;;8.59;65.57;100672.31;5072406;28;20168;-69
2022/04/30 08:05:05;;;;;;;16.70;12.98;;;;;;;8.74;65.22;100679.78;5072949;28;20040;-71
2022/04/30 08:07:30;;;;;;;15.32;12.80;;;;;;;8.82;64.34;100667.28;5073125;28;20037;-70
2022/04/30 08:09:55;;;;;;;21.60;12.45;;;;;;;8.70;64.33;100682.53;5072790;28;20102;-69
2022/04/30 08:12:21;;;;;;;17.88;14.48;;;;;;;8.62;65.53;100685.38;5071540;28;20035;-69
2022/04/30 08:14:48;;;;;;;16.02;13.20;;;;;;;8.50;64.54;100683.91;5072076;28;20045;-70
2022/04/30 08:17:13;;;;;;;20.58;13.13;;;;;;;8.58;64.85;100687.19;5072060;28;20117;-68
2022/04/30 08:19:40;;;;;;;22.33;13.90;;;;;;;8.73;64.85;100679.81;5072922;28;20399;-68
2022/04/30 08:22:06;;;;;;;24.00;13.55;;;;;;;8.90;64.44;100680.22;5070108;28;20613;-71
2022/04/30 08:24:32;;;;;;;18.60;13.65;;;;;;;8.95;64.30;100680.09;5073467;28;20123;-69
2022/04/30 08:26:59;;;;;;;20.75;11.82;;;;;;;8.91;63.72;100673.16;5073078;28;20610;-70
2022/04/30 08:29:26;;;;;;;17.17;11.60;;;;;;;9.08;63.84;100675.31;5088076;28;20036;-69
2022/04/30 08:31:51;;;;;;;15.75;11.82;;;;;;;9.06;63.47;100678.03;5071242;28;20074;-69
2022/04/30 08:34:17;;;;;;;17.40;11.15;;;;;;;9.07;62.50;100674.47;5077304;28;20032;-69
2022/04/30 08:36:42;;;;;;;17.38;11.68;;;;;;;9.06;63.48;100674.50;5078236;28;20040;-70
2022/04/30 08:39:07;;;;;;;12.52;11.07;;;;;;;9.22;63.35;100674.00;5073684;28;20120;-69
2022/04/30 08:41:33;;;;;;;14.15;11.00;;;;;;;9.79;61.37;100669.66;5071391;28;20499;-70
2022/04/30 08:43:58;;;;;;;14.43;9.52;;;;;;;10.43;58.63;100671.09;5072002;28;20420;-70
2022/04/30 08:46:24;;;;;;;12.75;10.43;;;;;;;11.28;55.37;100671.56;5071015;28;20443;-69
2022/04/30 08:48:49;;;;;;;12.30;9.75;;;;;;;11.44;54.52;100661.28;5071460;28;20502;-69
2022/04/30 08:51:15;;;;;;;13.75;7.55;;;;;;;11.98;53.43;100660.03;5071297;28;20032;-69
2022/04/30 08:53:41;;;;;;;11.63;6.18;;;;;;;12.61;51.54;100660.88;5072116;28;20586;-71
2022/04/30 08:56:07;;;;;;;13.23;6.15;;;;;;;12.48;50.46;100662.34;5071348;28;20047;-70
2022/04/30 08:58:33;;;;;;;8.55;6.00;;;;;;;12.22;51.52;100661.66;5071632;28;20060;-68
2022/04/30 09:01:02;;;;;;;13.45;7.57;;;;;;;11.87;53.01;100656.97;5070733;28;20056;-69
2022/04/30 09:03:27;;;;;;;10.40;7.22;;;;;;;11.74;54.13;100662.72;5071735;28;20081;-69
2022/04/30 09:05:58;;;;;;;9.80;7.30;;;;;;;11.49;55.11;100660.16;5071662;28;20115;-69
2022/04/30 09:08:23;;;;;;;15.05;8.95;;;;;;;11.42;55.51;100661.34;5071568;28;20032;-70
2022/04/30 09:10:48;;;;;;;13.63;8.02;;;;;;;11.43;55.28;100655.13;5072189;28;20086;-67
2022/04/30 09:13:16;;;;;;;15.55;12.20;;;;;;;11.87;54.41;100655.19;5070607;28;20037;-74
2022/04/30 09:15:45;;;;;;;12.25;8.43;;;;;;;12.11;52.41;100660.38;5071499;28;20113;-69
2022/04/30 09:18:13;;;;;;;8.73;6.70;;;;;;;11.75;51.73;100660.94;5073047;28;20041;-68
2022/04/30 09:20:46;;;;;;;8.98;7.05;;;;;;;11.95;50.61;100649.59;5075486;28;20032;-69
2022/04/30 09:23:32;;;;;;;9.25;6.85;;;;;;;12.28;49.24;100651.75;5069910;28;20048;-70
2022/04/30 09:26:02;;;;;;;10.60;6.28;;;;;;;13.05;46.85;100641.31;5070665;28;20052;-70
2022/04/30 09:28:36;;;;;;;12.55;6.72;;;;;;;13.15;46.31;100639.09;5073405;28;20059;-69
2022/04/30 09:31:08;;;;;;;11.98;7.22;;;;;;;14.36;42.95;100639.38;5073715;28;20550;-70
2022/04/30 09:33:36;;;;;;;17.77;6.40;;;;;;;14.99;41.22;100644.06;5069107;28;20131;-70
2022/04/30 09:38:48;;;;;;;8.82;5.43;;;;;;;16.47;37.00;100638.38;5070367;28;20074;-69
2022/04/30 09:41:14;;;;;;;6.82;4.88;;;;;;;17.50;35.40;100624.84;5070322;28;20029;-70
2022/04/30 09:43:42;;;;;;;5.70;4.97;;;;;;;18.47;34.91;100622.91;5070831;28;20029;-69
2022/04/30 09:46:08;;;;;;;8.85;5.32;;;;;;;18.58;34.58;100623.03;5070426;28;20032;-69
2022/04/30 09:54:03;;;;;;;8.35;6.32;;;;;;;16.61;38.59;100625.06;5071186;28;20047;-69
2022/04/30 09:56:39;;;;;;;9.20;5.25;;;;;;;15.83;39.37;100619.94;5069337;28;20052;-70
2022/04/30 09:59:13;;;;;;;7.57;4.40;;;;;;;15.29;40.81;100626.56;5069582;28;20058;-69
2022/04/30 10:01:43;;;;;;;9.55;5.18;;;;;;;14.81;41.09;100624.66;5070899;28;20028;-69
2022/04/30 10:04:14;;;;;;;10.35;4.70;;;;;;;14.39;42.11;100625.94;5070772;28;20124;-70
2022/04/30 10:06:43;;;;;;;9.90;4.80;;;;;;;15.93;38.77;100609.63;5050885;28;20080;-70
2022/04/30 10:09:10;;;;;;;10.13;5.20;;;;;;;16.94;36.78;100598.19;5051297;28;20029;-69
2022/04/30 10:12:13;;;;;;;7.82;4.93;;;;;;;17.56;35.58;100610.25;5049451;28;20041;-70
2022/04/30 10:14:38;;;;;;;8.45;5.97;;;;;;;17.86;33.76;100611.91;5050620;28;20025;-70
2022/04/30 10:17:13;;;;;;;8.95;4.78;;;;;;;18.48;33.94;100606.78;5050385;28;20477;-68
2022/04/30 10:19:43;;;;;;;9.73;4.88;;;;;;;18.98;33.08;100613.09;5048747;28;20033;-69
2022/04/30 10:22:11;;;;;;;5.72;4.75;;;;;;;19.16;32.18;100602.06;5049257;28;20112;-70
2022/04/30 10:24:41;;;;;;;7.70;5.13;;;;;;;19.40;32.07;100600.28;5050161;28;20116;-70
2022/04/30 10:27:06;;;;;;;6.97;5.03;;;;;;;19.18;32.13;100603.66;5050068;28;20036;-69
2022/04/30 10:29:32;;;;;;;5.13;4.63;;;;;;;19.35;31.52;100589.06;5050223;28;20029;-70
2022/04/30 10:31:57;;;;;;;7.00;4.68;;;;;;;18.03;33.94;100591.13;5049633;28;20083;-70
2022/04/30 10:34:30;;;;;;;6.45;3.50;;;;;;;17.28;34.69;100603.22;5049819;28;20037;-69
2022/04/30 10:36:56;;;;;;;10.18;4.97;;;;;;;17.07;34.63;100602.75;5049534;28;20084;-70
2022/04/30 10:39:21;;;;;;;5.45;4.22;;;;;;;17.82;33.86;100603.25;5049412;28;20490;-70
2022/04/30 10:41:52;;;;;;;10.05;5.40;;;;;;;18.76;32.62;100583.53;5048947;28;20045;-68
2022/04/30 10:44:28;;;;;;;8.32;5.18;;;;;;;19.83;31.25;100580.22;5055979;28;20082;-70
2022/04/30 10:46:54;;;;;;;6.97;4.55;;;;;;;18.85;32.68;100585.53;5070619;28;20097;-68
2022/04/30 10:49:19;;;;;;;7.53;4.15;;;;;;;17.85;34.99;100589.72;5068179;28;20835;-70
2022/04/30 10:51:45;;;;;;;8.05;5.28;;;;;;;17.12;36.80;100585.50;5068483;28;20059;-70
2022/04/30 10:54:13;;;;;;;8.68;4.35;;;;;;;16.38;37.49;100578.56;5071055;28;20154;-69
2022/04/30 10:56:39;;;;;;;11.30;5.00;;;;;;;15.79;38.96;100585.63;5070386;28;20711;-69
2022/04/30 10:59:06;;;;;;;10.15;4.75;;;;;;;16.05;37.54;100592.09;5070332;28;20097;-69
2022/04/30 11:01:32;;;;;;;5.82;4.30;;;;;;;15.95;36.89;100586.47;5069318;28;20531;-69
2022/04/30 11:03:57;;;;;;;7.22;4.88;;;;;;;16.05;36.09;100582.31;5070711;28;20032;-69
2022/04/30 11:06:29;;;;;;;7.43;4.25;;;;;;;15.56;37.89;100579.81;5071368;28;20104;-69
2022/04/30 11:09:03;;;;;;;6.85;4.47;;;;;;;15.40;38.33;100568.34;5070984;28;20123;-69
2022/04/30 11:11:30;;;;;;;8.02;5.00;;;;;;;15.10;39.38;100573.56;5072305;28;20074;-69
2022/04/30 11:13:56;;;;;;;6.25;4.30;;;;;;;15.02;38.92;100563.38;5070833;28;20043;-69
2022/04/30 11:16:28;;;;;;;9.30;5.15;;;;;;;14.51;40.22;100567.88;5070322;28;20127;-69
2022/04/30 11:18:59;;;;;;;7.95;4.45;;;;;;;14.70;39.96;100562.47;5070120;28;20089;-69
2022/04/30 11:21:32;;;;;;;5.38;3.92;;;;;;;15.02;38.57;100560.72;5070030;28;20039;-69
2022/04/30 11:23:57;;;;;;;7.85;4.30;;;;;;;15.29;38.89;100550.34;5072616;28;20104;-69
2022/04/30 11:26:22;;;;;;;8.98;4.82;;;;;;;15.30;38.42;100553.84;5075143;28;20067;-69
2022/04/30 11:28:50;;;;;;;7.85;4.82;;;;;;;14.92;39.57;100547.09;5075970;28;20025;-68
2022/04/30 11:31:22;;;;;;;8.48;4.65;;;;;;;14.73;39.81;100544.59;5073392;28;20029;-69
2022/04/30 11:33:48;;;;;;;8.30;4.55;;;;;;;14.67;39.24;100542.28;5075289;28;20064;-68
2022/04/30 11:36:13;;;;;;;10.13;4.80;;;;;;;14.74;39.94;100537.47;5072615;28;20051;-69
2022/04/30 11:38:39;;;;;;;8.52;4.40;;;;;;;14.16;41.38;100536.09;5073604;28;20064;-70
2022/04/30 11:41:06;;;;;;;7.90;4.88;;;;;;;13.99;41.22;100523.72;5073039;28;20033;-69
2022/04/30 11:43:31;;;;;;;8.30;4.38;;;;;;;14.33;41.30;100530.78;5073271;28;20032;-69
2022/04/30 11:46:01;;;;;;;7.47;3.97;;;;;;;14.57;40.63;100530.41;5073206;28;20078;-69
2022/04/30 11:48:32;;;;;;;9.95;4.82;;;;;;;14.42;41.07;100531.22;5073094;28;20037;-70
2022/04/30 11:50:57;;;;;;;6.32;4.28;;;;;;;14.58;39.75;100530.34;5072523;28;20037;-70
2022/04/30 11:53:23;;;;;;;10.73;6.07;;;;;;;14.46;39.82;100532.78;5072461;28;20357;-70